createdAt,value
2022-08-22T00:01:13.051Z,10.70
2022-08-22T00:02:47.469Z,12.23
2022-08-22T00:02:55.205Z,13.57
2022-08-22T00:03:55.078Z,13.10
2022-08-22T00:06:31.451Z,12.43
2022-08-22T00:09:04.534Z,12.68
2022-08-22T00:11:35.328Z,13.07
2022-08-22T00:14:13.644Z,10.95
2022-08-22T00:16:43.933Z,14.10
2022-08-22T00:19:14.041Z,12.75
2022-08-22T00:21:59.790Z,11.80
2022-08-22T00:24:33.701Z,11.02
2022-08-22T00:27:12.828Z,10.52
2022-08-22T00:29:55.290Z,14.13
2022-08-22T00:32:32.818Z,15.00
2022-08-22T00:35:03.380Z,12.32
2022-08-22T00:37:39.385Z,9.23
2022-08-22T00:40:26.700Z,11.82
2022-08-22T00:43:02.840Z,10.57
2022-08-22T00:45:30.006Z,9.18
2022-08-22T00:48:15.913Z,10.50
2022-08-22T00:53:10.181Z,10.15
2022-08-22T00:55:37.304Z,9.90
2022-08-22T00:58:13.637Z,7.65
2022-08-22T01:00:45.460Z,12.98
2022-08-22T01:03:32.035Z,15.20
2022-08-22T01:06:31.764Z,9.68
2022-08-22T01:09:24.156Z,14.35
2022-08-22T01:11:57.281Z,6.90
2022-08-22T01:14:46.433Z,9.00
2022-08-22T01:17:25.648Z,13.05
2022-08-22T01:20:11.501Z,7.60
2022-08-22T01:22:44.760Z,11.27
2022-08-22T01:25:30.483Z,10.18
2022-08-22T01:30:34.677Z,8.50
2022-08-22T01:33:07.031Z,9.13
2022-08-22T01:35:42.749Z,10.98
2022-08-22T01:38:35.243Z,13.48
2022-08-22T01:41:06.231Z,11.77
2022-08-22T01:44:00.659Z,11.13
2022-08-22T01:46:54.688Z,14.82
2022-08-22T01:49:25.150Z,10.10
2022-08-22T01:51:56.900Z,11.43
2022-08-22T01:54:47.233Z,9.93
2022-08-22T01:57:14.731Z,12.15
2022-08-22T01:59:44.221Z,11.35
2022-08-22T02:02:23.791Z,13.25
2022-08-22T02:04:53.766Z,10.20
2022-08-22T02:07:20.917Z,7.32
2022-08-22T02:10:01.852Z,13.80
2022-08-22T02:12:34.944Z,10.35
2022-08-22T02:15:20.673Z,14.13
2022-08-22T02:18:01.236Z,9.80
2022-08-22T02:21:00.876Z,15.85
2022-08-22T02:23:28.005Z,12.50
2022-08-22T02:26:02.283Z,15.02
2022-08-22T02:28:29.431Z,13.80
2022-08-22T02:31:02.755Z,12.43
2022-08-22T02:33:35.837Z,12.93
2022-08-22T02:36:06.972Z,15.23
2022-08-22T02:38:37.380Z,15.38
2022-08-22T02:41:34.096Z,11.45
2022-08-22T02:44:14.095Z,14.82
2022-08-22T02:46:41.369Z,12.15
2022-08-22T02:49:27.619Z,17.73
2022-08-22T02:52:12.649Z,13.63
2022-08-22T02:54:47.014Z,14.18
2022-08-22T02:57:20.217Z,13.93
2022-08-22T02:59:59.396Z,15.88
2022-08-22T03:02:34.056Z,13.15
2022-08-22T03:05:21.549Z,9.93
2022-08-22T03:07:51.215Z,20.17
2022-08-22T03:10:24.097Z,15.82
2022-08-22T03:12:55.757Z,17.33
2022-08-22T03:15:28.179Z,13.25
2022-08-22T03:18:18.438Z,14.68
2022-08-22T03:21:12.385Z,15.82
2022-08-22T03:23:42.578Z,16.23
2022-08-22T03:26:28.501Z,14.68
2022-08-22T03:31:27.197Z,17.98
2022-08-22T03:34:13.513Z,19.02
2022-08-22T03:36:45.451Z,14.18
2022-08-22T03:39:17.597Z,16.67
2022-08-22T03:41:57.349Z,15.23
2022-08-22T03:44:36.328Z,14.93
2022-08-22T03:47:17.018Z,15.13
2022-08-22T03:49:59.478Z,22.42
2022-08-22T03:52:57.701Z,17.27
2022-08-22T03:55:33.923Z,19.58
2022-08-22T03:58:27.661Z,20.15
2022-08-22T04:01:28.485Z,24.98
2022-08-22T04:03:55.645Z,21.63
2022-08-22T04:06:45.330Z,19.67
2022-08-22T04:09:41.147Z,23.83
2022-08-22T04:12:08.724Z,21.65
2022-08-22T04:14:54.571Z,22.33
2022-08-22T04:20:08.274Z,23.40
2022-08-22T04:22:50.486Z,21.67
2022-08-22T04:25:23.257Z,20.17
2022-08-22T04:27:58.780Z,21.63
2022-08-22T04:30:33.889Z,22.73
2022-08-22T04:33:21.417Z,21.95
2022-08-22T04:35:57.700Z,25.92
2022-08-22T04:38:27.694Z,19.05
2022-08-22T04:41:02.589Z,19.33
2022-08-22T04:43:35.317Z,28.65
2022-08-22T04:46:20.963Z,30.83
2022-08-22T04:48:54.206Z,28.65
2022-08-22T04:51:25.497Z,15.15
2022-08-22T04:54:02.695Z,21.27
2022-08-22T04:56:32.960Z,21.17
2022-08-22T04:59:05.453Z,23.10
2022-08-22T05:01:51.227Z,24.40
2022-08-22T05:04:27.125Z,24.17
2022-08-22T05:06:58.330Z,19.48
2022-08-22T05:09:27.781Z,19.75
2022-08-22T05:11:58.123Z,22.60
2022-08-22T05:14:38.647Z,23.77
2022-08-22T05:17:08.367Z,21.70
2022-08-22T05:19:37.802Z,21.27
2022-08-22T05:22:10.969Z,18.08
2022-08-22T05:24:40.493Z,20.70
2022-08-22T05:27:12.494Z,22.70
2022-08-22T05:29:41.336Z,18.95
2022-08-22T05:32:12.981Z,21.77
2022-08-22T05:34:41.752Z,21.00
2022-08-22T05:37:10.244Z,19.65
2022-08-22T05:39:38.838Z,19.83
2022-08-22T05:42:06.856Z,19.58
2022-08-22T05:44:35.449Z,22.45
2022-08-22T05:47:05.612Z,24.15
2022-08-22T05:49:41.237Z,18.20
2022-08-22T05:52:11.156Z,14.45
2022-08-22T05:54:49.291Z,24.13
2022-08-22T05:57:24.260Z,17.02
2022-08-22T05:59:54.989Z,22.65
2022-08-22T06:02:24.515Z,24.80
2022-08-22T06:04:54.792Z,15.60
2022-08-22T06:07:31.766Z,17.80
2022-08-22T06:10:17.629Z,16.70
2022-08-22T06:15:21.022Z,13.18
2022-08-22T06:17:50.404Z,16.05
2022-08-22T06:20:22.321Z,12.63
2022-08-22T06:22:52.354Z,15.43
2022-08-22T06:25:23.556Z,24.25
2022-08-22T06:27:51.274Z,12.02
2022-08-22T06:30:19.789Z,15.25
2022-08-22T06:33:00.017Z,15.50
2022-08-22T06:35:59.682Z,13.60
2022-08-22T06:38:34.901Z,13.23
2022-08-22T06:43:34.158Z,11.77
2022-08-22T06:46:01.649Z,11.60
2022-08-22T06:48:28.944Z,12.10
2022-08-22T06:50:58.617Z,12.93
2022-08-22T06:53:28.908Z,13.45
2022-08-22T06:55:57.271Z,14.70
2022-08-22T06:58:34.087Z,13.57
2022-08-22T07:01:12.303Z,11.90
2022-08-22T07:03:47.018Z,13.93
2022-08-22T07:06:15.758Z,13.30
2022-08-22T07:08:43.009Z,14.88
2022-08-22T07:11:18.452Z,13.95
2022-08-22T07:16:13.059Z,11.95
2022-08-22T07:18:49.041Z,9.95
2022-08-22T07:21:27.740Z,17.23
2022-08-22T07:23:55.717Z,17.13
2022-08-22T07:26:29.173Z,15.70
2022-08-22T07:28:59.121Z,11.75
2022-08-22T07:31:26.257Z,11.73
2022-08-22T07:34:00.954Z,14.60
2022-08-22T07:36:32.437Z,12.52
2022-08-22T07:39:14.897Z,15.02
2022-08-22T07:41:48.005Z,11.48
2022-08-22T07:44:19.497Z,11.35
2022-08-22T07:46:55.969Z,12.63
2022-08-22T07:49:26.196Z,14.25
2022-08-22T07:51:58.888Z,19.40
2022-08-22T07:54:35.293Z,13.10
2022-08-22T07:57:05.249Z,15.35
2022-08-22T07:59:34.151Z,14.98
2022-08-22T08:02:02.219Z,14.68
2022-08-22T08:04:39.490Z,10.40
2022-08-22T08:07:09.774Z,16.00
2022-08-22T08:09:42.014Z,13.48
2022-08-22T08:12:11.105Z,14.63
2022-08-22T08:14:40.805Z,15.77
2022-08-22T08:17:11.113Z,16.05
2022-08-22T08:19:41.465Z,16.52
2022-08-22T08:22:10.028Z,13.75
2022-08-22T08:24:40.560Z,18.23
2022-08-22T08:27:36.737Z,13.57
2022-08-22T08:30:15.273Z,14.30
2022-08-22T08:32:43.898Z,10.57
2022-08-22T08:35:28.244Z,11.52
2022-08-22T08:38:03.701Z,15.60
2022-08-22T08:40:33.688Z,12.10
2022-08-22T08:43:35.070Z,12.52
2022-08-22T08:46:07.016Z,15.75
2022-08-22T08:48:53.169Z,10.45
2022-08-22T08:51:39.104Z,10.38
2022-08-22T08:54:43.528Z,14.18
2022-08-22T08:57:10.677Z,14.90
2022-08-22T09:00:00.989Z,13.32
2022-08-22T09:02:50.469Z,14.88
2022-08-22T09:05:45.041Z,13.05
2022-08-22T09:08:33.304Z,11.38
2022-08-22T09:11:28.270Z,18.05
2022-08-22T09:14:15.125Z,13.17
2022-08-22T09:17:00.841Z,16.27
2022-08-22T09:21:58.121Z,12.98
2022-08-22T09:24:25.294Z,11.77
2022-08-22T09:26:58.182Z,10.68
2022-08-22T09:29:36.099Z,10.77
2022-08-22T09:32:41.065Z,9.88
2022-08-22T09:35:12.205Z,11.48
2022-08-22T09:37:48.411Z,14.77
2022-08-22T09:40:18.848Z,13.48
2022-08-22T09:42:46.868Z,11.20
2022-08-22T09:45:34.413Z,9.77
2022-08-22T09:48:21.475Z,11.27
2022-08-22T09:51:01.628Z,12.32
2022-08-22T09:53:53.058Z,9.48
2022-08-22T09:56:20.400Z,8.25
2022-08-22T09:59:00.705Z,11.98
2022-08-22T10:01:42.271Z,9.48
2022-08-22T10:04:19.595Z,11.95
2022-08-22T10:06:46.978Z,12.48
2022-08-22T10:09:26.433Z,10.15
2022-08-22T10:12:12.452Z,7.95
2022-08-22T10:14:40.753Z,7.63
2022-08-22T10:17:21.556Z,11.32
2022-08-22T10:19:54.778Z,9.82
2022-08-22T10:22:40.493Z,8.32
2022-08-22T10:25:28.479Z,7.75
2022-08-22T10:28:01.626Z,7.13
2022-08-22T10:30:28.820Z,6.90
2022-08-22T10:33:14.665Z,9.23
2022-08-22T10:35:44.849Z,4.93
2022-08-22T10:38:25.194Z,11.75
2022-08-22T10:40:55.659Z,6.85
2022-08-22T10:43:30.245Z,7.43
2022-08-22T10:46:04.615Z,6.43
2022-08-22T10:48:36.347Z,9.70
2022-08-22T10:51:03.554Z,7.40
2022-08-22T10:53:54.854Z,9.93
2022-08-22T10:56:29.463Z,6.43
2022-08-22T10:59:13.079Z,7.80
2022-08-22T11:01:45.527Z,8.32
2022-08-22T11:04:18.652Z,11.55
2022-08-22T11:06:59.737Z,7.97
2022-08-22T11:09:39.841Z,10.30
2022-08-22T11:12:34.492Z,7.43
2022-08-22T11:15:34.395Z,10.50
2022-08-22T11:18:22.453Z,8.18
2022-08-22T11:20:50.015Z,7.97
2022-08-22T11:23:23.380Z,6.15
2022-08-22T11:25:52.410Z,8.07
2022-08-22T11:28:50.923Z,5.80
2022-08-22T11:31:24.489Z,7.13
2022-08-22T11:34:10.349Z,6.82
2022-08-22T11:36:37.584Z,8.18
2022-08-22T11:39:18.724Z,5.50
2022-08-22T11:41:59.263Z,7.63
2022-08-22T11:44:50.776Z,7.32
2022-08-22T11:47:20.486Z,9.00
2022-08-22T11:50:14.268Z,7.03
2022-08-22T11:52:57.873Z,11.77
2022-08-22T11:55:50.125Z,6.30
2022-08-22T11:58:28.837Z,10.73
2022-08-22T12:01:00.489Z,6.22
2022-08-22T12:03:35.535Z,9.32
2022-08-22T12:06:08.808Z,8.68
2022-08-22T12:08:36.542Z,17.50
2022-08-22T12:11:22.401Z,13.52
2022-08-22T12:16:16.845Z,13.45
2022-08-22T12:19:04.869Z,11.27
2022-08-22T12:21:36.687Z,7.07
2022-08-22T12:24:06.119Z,9.02
2022-08-22T12:26:52.961Z,9.40
2022-08-22T12:29:45.269Z,9.93
2022-08-22T12:32:27.559Z,9.52
2022-08-22T12:34:57.867Z,8.75
2022-08-22T12:37:52.098Z,8.43
2022-08-22T12:40:26.420Z,10.77
2022-08-22T12:43:03.602Z,15.57
2022-08-22T12:45:36.674Z,12.52
2022-08-22T12:48:07.828Z,7.68
2022-08-22T12:50:52.741Z,11.05
2022-08-22T12:53:40.182Z,7.28
2022-08-22T12:56:10.248Z,6.82
2022-08-22T12:58:55.853Z,9.20
2022-08-22T13:01:33.679Z,9.57
2022-08-22T13:04:03.452Z,5.53
2022-08-22T13:06:36.843Z,8.80
2022-08-22T13:09:13.912Z,10.98
2022-08-22T13:11:42.473Z,6.85
2022-08-22T13:14:15.620Z,8.48
2022-08-22T13:16:51.612Z,7.38
2022-08-22T13:19:22.262Z,9.27
2022-08-22T13:21:51.466Z,9.25
2022-08-22T13:24:38.388Z,8.63
2022-08-22T13:27:09.426Z,9.40
2022-08-22T13:29:49.316Z,8.32
2022-08-22T13:32:44.501Z,9.40
2022-08-22T13:35:19.017Z,9.50
2022-08-22T13:37:53.703Z,9.07
2022-08-22T13:40:26.696Z,8.00
2022-08-22T13:42:58.329Z,7.97
2022-08-22T13:45:27.833Z,7.50
2022-08-22T13:47:57.433Z,13.82
2022-08-22T13:50:26.589Z,9.48
2022-08-22T13:53:04.560Z,12.27
2022-08-22T13:55:34.193Z,12.55
2022-08-22T13:58:01.364Z,9.20
2022-08-22T14:00:29.565Z,11.65
2022-08-22T14:02:59.614Z,12.95
2022-08-22T14:05:44.947Z,5.90
2022-08-22T14:08:13.025Z,8.88
2022-08-22T14:10:44.076Z,7.55
2022-08-22T14:13:12.811Z,9.95
2022-08-22T14:15:45.764Z,8.10
2022-08-22T14:18:13.312Z,8.80
2022-08-22T14:20:42.105Z,9.98
2022-08-22T14:23:24.152Z,7.53
2022-08-22T14:25:54.621Z,5.73
2022-08-22T14:28:27.877Z,7.43
2022-08-22T14:31:13.314Z,9.25
2022-08-22T14:36:17.341Z,10.05
2022-08-22T14:38:47.666Z,10.25
2022-08-22T14:41:15.877Z,9.30
2022-08-22T14:43:50.331Z,10.98
2022-08-22T14:46:26.446Z,8.63
2022-08-22T14:48:56.852Z,7.03
2022-08-22T14:51:25.816Z,11.50
2022-08-22T14:53:53.314Z,9.57
2022-08-22T14:56:25.500Z,6.85
2022-08-22T14:58:57.428Z,9.23
2022-08-22T15:01:26.678Z,9.88
2022-08-22T15:04:08.114Z,6.60
2022-08-22T15:06:38.350Z,6.32
2022-08-22T15:09:31.648Z,8.07
2022-08-22T15:11:59.593Z,7.78
2022-08-22T15:14:38.158Z,9.75
2022-08-22T15:17:07.340Z,8.85
2022-08-22T15:19:36.768Z,7.25
2022-08-22T15:22:11.504Z,7.57
2022-08-22T15:24:46.598Z,10.85
2022-08-22T15:27:17.509Z,5.20
2022-08-22T15:29:49.521Z,6.63
2022-08-22T15:32:20.958Z,6.15
2022-08-22T15:34:52.452Z,6.95
2022-08-22T15:37:19.719Z,8.35
2022-08-22T15:40:03.001Z,9.93
2022-08-22T15:42:37.116Z,7.65
2022-08-22T15:45:04.945Z,12.27
2022-08-22T15:47:37.397Z,12.48
2022-08-22T15:50:10.845Z,9.55
2022-08-22T15:53:05.134Z,18.30
2022-08-22T15:55:34.462Z,11.05
2022-08-22T15:58:07.063Z,8.77
2022-08-22T16:00:36.217Z,8.57
2022-08-22T16:03:30.945Z,8.40
2022-08-22T16:06:05.061Z,13.02
2022-08-22T16:08:34.730Z,9.00
2022-08-22T16:11:04.981Z,11.38
2022-08-22T16:13:38.136Z,10.32
2022-08-22T16:16:08.577Z,7.60
2022-08-22T16:18:44.800Z,9.57
2022-08-22T16:21:16.530Z,4.68
2022-08-22T16:23:49.848Z,8.00
2022-08-22T16:26:19.337Z,6.90
2022-08-22T16:29:04.861Z,7.07
2022-08-22T16:34:20.138Z,8.02
2022-08-22T16:36:47.298Z,8.20
2022-08-22T16:39:14.495Z,7.53
2022-08-22T16:41:44.257Z,9.43
2022-08-22T16:44:29.961Z,7.38
2022-08-22T16:47:15.873Z,7.53
2022-08-22T16:49:51.972Z,6.47
2022-08-22T16:52:22.302Z,7.80
2022-08-22T16:54:53.870Z,12.13
2022-08-22T16:57:26.504Z,7.57
2022-08-22T17:00:13.026Z,9.93
2022-08-22T17:03:03.218Z,9.25
2022-08-22T17:05:33.186Z,7.45
2022-08-22T17:08:13.789Z,7.47
2022-08-22T17:10:48.088Z,7.68
2022-08-22T17:13:33.949Z,7.70
2022-08-22T17:16:19.782Z,8.73
2022-08-22T17:18:54.149Z,6.55
2022-08-22T17:21:26.293Z,6.35
2022-08-22T17:24:02.289Z,9.70
2022-08-22T17:26:40.669Z,11.07
2022-08-22T17:29:13.994Z,8.13
2022-08-22T17:31:41.261Z,6.72
2022-08-22T17:34:08.436Z,9.75
2022-08-22T17:36:54.256Z,7.75
2022-08-22T17:41:57.984Z,9.23
2022-08-22T17:44:30.545Z,10.38
2022-08-22T17:47:03.029Z,15.07
2022-08-22T17:49:36.091Z,11.60
2022-08-22T17:52:12.622Z,8.95
2022-08-22T17:54:40.533Z,11.20
2022-08-22T17:57:26.112Z,7.97
2022-08-22T17:59:57.108Z,9.00
2022-08-22T18:02:28.025Z,13.32
2022-08-22T18:05:04.250Z,9.63
2022-08-22T18:07:39.873Z,9.30
2022-08-22T18:10:27.329Z,8.35
2022-08-22T18:13:06.236Z,6.93
2022-08-22T18:15:34.314Z,8.88
2022-08-22T18:18:20.125Z,13.93
2022-08-22T18:23:35.690Z,12.35
2022-08-22T18:26:07.818Z,8.63
2022-08-22T18:28:37.269Z,10.35
2022-08-22T18:31:07.740Z,6.60
2022-08-22T18:33:44.735Z,8.00
2022-08-22T18:36:23.153Z,13.68
2022-08-22T18:38:57.748Z,8.73
2022-08-22T18:41:29.189Z,10.85
2022-08-22T18:43:59.338Z,9.18
2022-08-22T18:46:46.132Z,14.52
2022-08-22T18:49:22.477Z,11.57
2022-08-22T18:52:13.698Z,10.68
2022-08-22T18:54:55.701Z,7.90
2022-08-22T18:57:31.731Z,10.88
2022-08-22T19:00:10.075Z,10.52
2022-08-22T19:02:37.239Z,9.38
2022-08-22T19:05:10.210Z,8.73
2022-08-22T19:07:37.349Z,9.07
2022-08-22T19:10:13.690Z,8.80
2022-08-22T19:12:53.457Z,16.33
2022-08-22T19:15:25.241Z,11.88
2022-08-22T19:17:55.380Z,7.03
2022-08-22T19:20:49.827Z,8.70
2022-08-22T19:23:40.725Z,11.90
2022-08-22T19:26:26.227Z,9.55
2022-08-22T19:28:55.520Z,13.02
2022-08-22T19:31:23.310Z,11.45
2022-08-22T19:34:10.525Z,12.40
2022-08-22T19:36:37.810Z,10.75
2022-08-22T19:39:04.986Z,10.48
2022-08-22T19:41:54.003Z,14.40
2022-08-22T19:44:21.160Z,9.05
2022-08-22T19:47:08.738Z,10.27
2022-08-22T19:49:37.908Z,17.77
2022-08-22T19:52:21.215Z,10.45
2022-08-22T19:54:48.449Z,10.18
2022-08-22T19:57:18.792Z,11.73
2022-08-22T19:59:51.881Z,11.90
2022-08-22T20:02:21.861Z,8.13
2022-08-22T20:04:55.912Z,11.55
2022-08-22T20:07:45.888Z,11.70
2022-08-22T20:10:15.837Z,9.43
2022-08-22T20:13:07.710Z,11.82
2022-08-22T20:15:55.027Z,10.05
2022-08-22T20:19:06.518Z,14.23
2022-08-22T20:21:53.920Z,9.95
2022-08-22T20:24:40.200Z,14.70
2022-08-22T20:27:15.192Z,11.10
2022-08-22T20:29:45.099Z,11.05
2022-08-22T20:32:15.455Z,10.65
2022-08-22T20:34:43.370Z,13.68
2022-08-22T20:37:29.577Z,9.05
2022-08-22T20:40:38.036Z,10.23
2022-08-22T20:43:10.734Z,12.75
2022-08-22T20:45:42.479Z,10.23
2022-08-22T20:48:11.023Z,13.75
2022-08-22T20:50:38.219Z,14.65
2022-08-22T20:53:20.012Z,9.73
2022-08-22T20:55:56.316Z,9.15
2022-08-22T20:58:25.477Z,12.57
2022-08-22T21:00:54.913Z,12.13
2022-08-22T21:03:36.369Z,9.52
2022-08-22T21:06:29.925Z,8.25
2022-08-22T21:09:36.802Z,17.45
2022-08-22T21:12:04.713Z,11.52
2022-08-22T21:14:33.254Z,8.88
2022-08-22T21:17:16.784Z,13.80
2022-08-22T21:19:43.946Z,7.95
2022-08-22T21:22:15.008Z,13.10
2022-08-22T21:24:42.434Z,11.27
2022-08-22T21:27:14.406Z,10.13
2022-08-22T21:29:46.611Z,17.25
2022-08-22T21:32:34.045Z,8.52
2022-08-22T21:35:02.174Z,9.70
2022-08-22T21:37:40.980Z,10.68
2022-08-22T21:40:15.262Z,13.15
2022-08-22T21:42:43.983Z,15.65
2022-08-22T21:45:13.894Z,10.45
2022-08-22T21:47:42.609Z,9.45
2022-08-22T21:50:18.884Z,10.98
2022-08-22T21:53:02.953Z,8.57
2022-08-22T21:55:36.484Z,8.65
2022-08-22T21:58:12.611Z,11.85
2022-08-22T22:00:54.853Z,11.10
2022-08-22T22:03:28.823Z,10.95
2022-08-22T22:05:57.719Z,15.10
2022-08-22T22:08:25.440Z,11.60
2022-08-22T22:11:00.943Z,9.43
2022-08-22T22:13:28.976Z,13.88
2022-08-22T22:15:56.340Z,9.38
2022-08-22T22:18:24.932Z,15.52
2022-08-22T22:20:53.390Z,9.50
2022-08-22T22:23:22.131Z,11.10
2022-08-22T22:25:49.850Z,14.18
2022-08-22T22:28:21.841Z,13.80
2022-08-22T22:30:56.332Z,10.00
2022-08-22T22:33:25.114Z,10.07
2022-08-22T22:35:53.102Z,15.50
2022-08-22T22:38:24.050Z,11.73
2022-08-22T22:40:52.098Z,8.98
2022-08-22T22:43:19.404Z,11.13
2022-08-22T22:45:46.564Z,12.77
2022-08-22T22:48:23.817Z,16.05
2022-08-22T22:50:51.997Z,9.32
2022-08-22T22:53:20.037Z,11.27
2022-08-22T22:55:59.968Z,12.05
2022-08-22T22:58:28.094Z,13.45
2022-08-22T23:00:55.918Z,11.75
2022-08-22T23:03:23.396Z,10.60
2022-08-22T23:05:50.596Z,12.60
2022-08-22T23:08:18.065Z,9.15
2022-08-22T23:10:45.389Z,8.82
2022-08-22T23:13:12.556Z,11.43
2022-08-22T23:15:39.725Z,13.50
2022-08-22T23:18:06.917Z,12.65
2022-08-22T23:20:34.124Z,12.63
2022-08-22T23:23:01.353Z,16.58
2022-08-22T23:25:28.537Z,14.95
2022-08-22T23:27:55.868Z,11.40
2022-08-22T23:30:23.154Z,12.77
2022-08-22T23:32:50.463Z,20.15
2022-08-22T23:35:17.712Z,15.55
2022-08-22T23:37:44.933Z,12.57
2022-08-22T23:40:12.878Z,15.52
2022-08-22T23:42:40.177Z,18.00
2022-08-22T23:45:07.662Z,16.58
2022-08-22T23:47:34.845Z,15.50
2022-08-22T23:50:05.991Z,16.05
2022-08-22T23:52:33.561Z,14.23
2022-08-22T23:55:00.737Z,12.88
2022-08-22T23:57:29.351Z,9.77
2022-08-22T23:59:58.347Z,18.00
